sensor_id;sensor_type;location;lat;lon;timestamp;pressure;altitude;pressure_sealevel;temperature;humidity
16806;BME280;8520;50.102;20.010;2023-01-19T00:01:31;96908.78;;;5.16;77.00
16806;BME280;8520;50.102;20.010;2023-01-19T00:04:00;96911.50;;;5.16;76.94
16806;BME280;8520;50.102;20.010;2023-01-19T00:06:28;96895.50;;;5.08;77.08
16806;BME280;8520;50.102;20.010;2023-01-19T00:08:57;96900.59;;;5.16;77.14
16806;BME280;8520;50.102;20.010;2023-01-19T00:11:25;96901.34;;;5.16;77.20
16806;BME280;8520;50.102;20.010;2023-01-19T00:13:53;96905.84;;;5.19;77.16
16806;BME280;8520;50.102;20.010;2023-01-19T00:16:23;96897.66;;;5.19;77.08
16806;BME280;8520;50.102;20.010;2023-01-19T00:18:51;96907.06;;;5.18;76.97
16806;BME280;8520;50.102;20.010;2023-01-19T00:21:20;96914.03;;;5.19;77.04
16806;BME280;8520;50.102;20.010;2023-01-19T00:23:48;96914.50;;;5.18;76.50
16806;BME280;8520;50.102;20.010;2023-01-19T00:26:18;96922.22;;;5.19;76.51
16806;BME280;8520;50.102;20.010;2023-01-19T00:28:48;96913.47;;;5.15;76.53
16806;BME280;8520;50.102;20.010;2023-01-19T00:31:17;96913.28;;;5.19;76.77
16806;BME280;8520;50.102;20.010;2023-01-19T00:33:49;96921.19;;;5.17;76.48
16806;BME280;8520;50.102;20.010;2023-01-19T00:36:18;96914.03;;;5.19;76.86
16806;BME280;8520;50.102;20.010;2023-01-19T00:38:47;96910.28;;;5.17;76.59
16806;BME280;8520;50.102;20.010;2023-01-19T00:41:15;96918.19;;;5.14;76.43
16806;BME280;8520;50.102;20.010;2023-01-19T00:43:43;96919.34;;;5.23;76.60
16806;BME280;8520;50.102;20.010;2023-01-19T00:46:10;96920.84;;;5.24;76.71
16806;BME280;8520;50.102;20.010;2023-01-19T00:48:39;96923.38;;;5.27;76.84
16806;BME280;8520;50.102;20.010;2023-01-19T00:51:08;96918.94;;;5.30;77.14
16806;BME280;8520;50.102;20.010;2023-01-19T00:53:36;96907.84;;;5.33;77.00
16806;BME280;8520;50.102;20.010;2023-01-19T00:56:05;96906.50;;;5.29;76.54
16806;BME280;8520;50.102;20.010;2023-01-19T00:58:33;96913.03;;;5.31;76.68
16806;BME280;8520;50.102;20.010;2023-01-19T01:01:01;96926.84;;;5.28;76.38
16806;BME280;8520;50.102;20.010;2023-01-19T01:03:30;96915.94;;;5.28;76.23
16806;BME280;8520;50.102;20.010;2023-01-19T01:05:58;96910.38;;;5.22;75.94
16806;BME280;8520;50.102;20.010;2023-01-19T01:08:28;96922.91;;;5.29;76.23
16806;BME280;8520;50.102;20.010;2023-01-19T01:10:56;96914.59;;;5.38;76.30
16806;BME280;8520;50.102;20.010;2023-01-19T01:13:26;96917.91;;;5.42;76.07
16806;BME280;8520;50.102;20.010;2023-01-19T01:15:55;96916.97;;;5.45;76.27
16806;BME280;8520;50.102;20.010;2023-01-19T01:18:24;96902.66;;;5.35;75.99
16806;BME280;8520;50.102;20.010;2023-01-19T01:20:52;96902.19;;;5.52;76.09
16806;BME280;8520;50.102;20.010;2023-01-19T01:23:21;96897.72;;;5.69;75.47
16806;BME280;8520;50.102;20.010;2023-01-19T01:25:51;96892.81;;;5.73;75.29
16806;BME280;8520;50.102;20.010;2023-01-19T01:28:19;96889.16;;;5.76;75.27
16806;BME280;8520;50.102;20.010;2023-01-19T01:30:52;96890.94;;;5.79;75.24
16806;BME280;8520;50.102;20.010;2023-01-19T01:33:20;96889.34;;;5.72;75.00
16806;BME280;8520;50.102;20.010;2023-01-19T01:36:07;96886.41;;;5.76;74.84
16806;BME280;8520;50.102;20.010;2023-01-19T01:38:36;96885.00;;;5.66;74.52
16806;BME280;8520;50.102;20.010;2023-01-19T01:41:05;96876.63;;;5.55;75.00
16806;BME280;8520;50.102;20.010;2023-01-19T01:43:43;96886.91;;;5.45;75.85
16806;BME280;8520;50.102;20.010;2023-01-19T01:46:12;96880.59;;;5.39;76.11
16806;BME280;8520;50.102;20.010;2023-01-19T01:48:44;96879.84;;;5.38;76.29
16806;BME280;8520;50.102;20.010;2023-01-19T01:51:16;96886.28;;;5.35;75.97
16806;BME280;8520;50.102;20.010;2023-01-19T01:53:57;96886.28;;;5.35;75.80
16806;BME280;8520;50.102;20.010;2023-01-19T01:56:33;96878.81;;;5.36;75.92
16806;BME280;8520;50.102;20.010;2023-01-19T01:59:04;96872.91;;;5.23;75.70
16806;BME280;8520;50.102;20.010;2023-01-19T02:01:34;96870.72;;;5.27;76.17
16806;BME280;8520;50.102;20.010;2023-01-19T02:04:21;96871.09;;;5.34;76.11
16806;BME280;8520;50.102;20.010;2023-01-19T02:06:50;96874.38;;;5.38;76.41
16806;BME280;8520;50.102;20.010;2023-01-19T02:09:36;96877.88;;;5.39;76.00
16806;BME280;8520;50.102;20.010;2023-01-19T02:12:23;96877.13;;;5.38;75.93
16806;BME280;8520;50.102;20.010;2023-01-19T02:15:15;96883.44;;;5.45;76.20
16806;BME280;8520;50.102;20.010;2023-01-19T02:17:43;96873.25;;;5.45;76.20
16806;BME280;8520;50.102;20.010;2023-01-19T02:20:12;96867.78;;;5.45;75.96
16806;BME280;8520;50.102;20.010;2023-01-19T02:22:46;96869.78;;;5.45;75.77
16806;BME280;8520;50.102;20.010;2023-01-19T02:25:19;96879.31;;;5.49;76.14
16806;BME280;8520;50.102;20.010;2023-01-19T02:27:49;96867.91;;;5.51;76.24
16806;BME280;8520;50.102;20.010;2023-01-19T02:30:18;96865.53;;;5.43;75.67
16806;BME280;8520;50.102;20.010;2023-01-19T02:32:46;96861.38;;;5.48;76.13
16806;BME280;8520;50.102;20.010;2023-01-19T02:35:15;96860.63;;;5.48;75.91
16806;BME280;8520;50.102;20.010;2023-01-19T02:37:43;96851.88;;;5.43;76.04
16806;BME280;8520;50.102;20.010;2023-01-19T02:40:14;96860.94;;;5.50;75.85
16806;BME280;8520;50.102;20.010;2023-01-19T02:42:48;96844.53;;;5.50;75.99
16806;BME280;8520;50.102;20.010;2023-01-19T02:45:19;96847.81;;;5.54;76.00
16806;BME280;8520;50.102;20.010;2023-01-19T02:47:50;96852.72;;;5.50;75.80
16806;BME280;8520;50.102;20.010;2023-01-19T02:50:39;96861.47;;;5.54;75.65
16806;BME280;8520;50.102;20.010;2023-01-19T02:59:22;96873.63;;;5.53;75.81
16806;BME280;8520;50.102;20.010;2023-01-19T03:04:56;96878.34;;;5.52;75.67
16806;BME280;8520;50.102;20.010;2023-01-19T03:07:34;96876.66;;;5.40;75.58
16806;BME280;8520;50.102;20.010;2023-01-19T03:10:07;96875.72;;;5.43;75.91
16806;BME280;8520;50.102;20.010;2023-01-19T03:12:46;96887.66;;;5.46;75.58
16806;BME280;8520;50.102;20.010;2023-01-19T03:15:19;96883.34;;;5.39;75.76
16806;BME280;8520;50.102;20.010;2023-01-19T03:17:50;96885.25;;;5.33;75.76
16806;BME280;8520;50.102;20.010;2023-01-19T03:20:22;96880.25;;;5.31;76.26
16806;BME280;8520;50.102;20.010;2023-01-19T03:22:54;96878.66;;;5.39;76.54
16806;BME280;8520;50.102;20.010;2023-01-19T03:25:23;96884.56;;;5.38;76.15
16806;BME280;8520;50.102;20.010;2023-01-19T03:27:53;96892.09;;;5.43;75.82
16806;BME280;8520;50.102;20.010;2023-01-19T03:30:28;96885.78;;;5.37;75.78
16806;BME280;8520;50.102;20.010;2023-01-19T03:33:02;96885.72;;;5.17;76.41
16806;BME280;8520;50.102;20.010;2023-01-19T03:35:35;96874.31;;;5.33;76.48
16806;BME280;8520;50.102;20.010;2023-01-19T03:38:09;96881.94;;;5.14;76.71
16806;BME280;8520;50.102;20.010;2023-01-19T03:40:39;96886.94;;;5.16;76.80
16806;BME280;8520;50.102;20.010;2023-01-19T03:43:08;96890.44;;;5.31;76.69
16806;BME280;8520;50.102;20.010;2023-01-19T03:45:38;96894.75;;;5.37;76.56
16806;BME280;8520;50.102;20.010;2023-01-19T03:48:07;96892.38;;;5.45;76.81
16806;BME280;8520;50.102;20.010;2023-01-19T03:50:35;96901.59;;;5.48;76.65
16806;BME280;8520;50.102;20.010;2023-01-19T03:53:07;96905.09;;;5.48;75.78
16806;BME280;8520;50.102;20.010;2023-01-19T03:55:38;96902.44;;;5.54;75.86
16806;BME280;8520;50.102;20.010;2023-01-19T03:58:06;96903.03;;;5.58;76.14
16806;BME280;8520;50.102;20.010;2023-01-19T04:00:35;96900.00;;;5.56;76.19
16806;BME280;8520;50.102;20.010;2023-01-19T04:03:09;96901.31;;;5.46;76.78
16806;BME280;8520;50.102;20.010;2023-01-19T04:05:39;96904.22;;;5.57;76.95
16806;BME280;8520;50.102;20.010;2023-01-19T04:08:08;96901.81;;;5.59;77.03
16806;BME280;8520;50.102;20.010;2023-01-19T04:10:36;96914.41;;;5.56;76.90
16806;BME280;8520;50.102;20.010;2023-01-19T04:13:05;96914.41;;;5.56;76.98
16806;BME280;8520;50.102;20.010;2023-01-19T04:15:33;96909.63;;;5.51;77.19
16806;BME280;8520;50.102;20.010;2023-01-19T04:18:01;96910.09;;;5.50;77.03
16806;BME280;8520;50.102;20.010;2023-01-19T04:20:31;96906.91;;;5.51;76.39
16806;BME280;8520;50.102;20.010;2023-01-19T04:23:00;96896.63;;;5.61;76.75
16806;BME280;8520;50.102;20.010;2023-01-19T04:25:29;96887.97;;;5.18;78.11
16806;BME280;8520;50.102;20.010;2023-01-19T04:27:57;96874.50;;;5.44;77.80
16806;BME280;8520;50.102;20.010;2023-01-19T04:30:25;96878.72;;;5.45;78.01
16806;BME280;8520;50.102;20.010;2023-01-19T04:32:54;96880.06;;;5.50;77.87
16806;BME280;8520;50.102;20.010;2023-01-19T04:35:22;96865.75;;;5.40;77.51
16806;BME280;8520;50.102;20.010;2023-01-19T04:37:51;96873.84;;;5.49;77.69
16806;BME280;8520;50.102;20.010;2023-01-19T04:40:20;96877.41;;;5.40;77.79
16806;BME280;8520;50.102;20.010;2023-01-19T04:42:48;96888.34;;;5.40;77.36
16806;BME280;8520;50.102;20.010;2023-01-19T04:45:16;96898.59;;;5.46;77.81
16806;BME280;8520;50.102;20.010;2023-01-19T04:47:44;96896.13;;;5.48;77.76
16806;BME280;8520;50.102;20.010;2023-01-19T04:50:12;96907.53;;;5.46;77.36
16806;BME280;8520;50.102;20.010;2023-01-19T04:52:40;96908.97;;;5.41;76.82
16806;BME280;8520;50.102;20.010;2023-01-19T04:55:10;96908.22;;;5.26;76.69
16806;BME280;8520;50.102;20.010;2023-01-19T04:57:38;96923.16;;;5.01;77.48
16806;BME280;8520;50.102;20.010;2023-01-19T05:00:08;96936.47;;;5.23;76.81
16806;BME280;8520;50.102;20.010;2023-01-19T05:02:36;96938.25;;;5.26;76.65
16806;BME280;8520;50.102;20.010;2023-01-19T05:05:04;96927.63;;;5.13;76.06
16806;BME280;8520;50.102;20.010;2023-01-19T05:07:33;96929.13;;;5.14;76.64
16806;BME280;8520;50.102;20.010;2023-01-19T05:10:01;96930.66;;;4.92;77.82
16806;BME280;8520;50.102;20.010;2023-01-19T05:12:30;96941.78;;;5.03;77.75
16806;BME280;8520;50.102;20.010;2023-01-19T05:14:58;96945.53;;;4.91;77.73
16806;BME280;8520;50.102;20.010;2023-01-19T05:17:27;96952.72;;;4.40;79.75
16806;BME280;8520;50.102;20.010;2023-01-19T05:19:55;96952.25;;;4.42;80.94
16806;BME280;8520;50.102;20.010;2023-01-19T05:22:23;96954.81;;;4.69;79.79
16806;BME280;8520;50.102;20.010;2023-01-19T05:24:51;96955.38;;;4.73;79.33
16806;BME280;8520;50.102;20.010;2023-01-19T05:27:20;96956.03;;;4.68;79.23
16806;BME280;8520;50.102;20.010;2023-01-19T05:29:49;96963.69;;;4.94;79.16
16806;BME280;8520;50.102;20.010;2023-01-19T05:32:17;96968.16;;;5.06;78.51
16806;BME280;8520;50.102;20.010;2023-01-19T05:34:45;96975.53;;;5.14;78.19
16806;BME280;8520;50.102;20.010;2023-01-19T05:37:13;96972.22;;;5.10;77.52
16806;BME280;8520;50.102;20.010;2023-01-19T05:39:42;96971.84;;;5.18;77.51
16806;BME280;8520;50.102;20.010;2023-01-19T05:42:10;96986.66;;;5.26;77.37
16806;BME280;8520;50.102;20.010;2023-01-19T05:44:38;96980.44;;;5.25;76.75
16806;BME280;8520;50.102;20.010;2023-01-19T05:47:07;96980.84;;;5.33;77.01
16806;BME280;8520;50.102;20.010;2023-01-19T05:49:36;96968.47;;;5.23;76.91
16806;BME280;8520;50.102;20.010;2023-01-19T05:52:04;96983.28;;;5.31;77.07
16806;BME280;8520;50.102;20.010;2023-01-19T05:54:32;96988.06;;;5.36;76.86
16806;BME280;8520;50.102;20.010;2023-01-19T05:57:00;96983.66;;;5.38;76.96
16806;BME280;8520;50.102;20.010;2023-01-19T05:59:28;96981.03;;;5.44;77.27
16806;BME280;8520;50.102;20.010;2023-01-19T06:01:56;96982.63;;;5.51;77.42
16806;BME280;8520;50.102;20.010;2023-01-19T06:04:27;96995.78;;;5.37;77.47
16806;BME280;8520;50.102;20.010;2023-01-19T06:06:55;96991.75;;;5.48;77.80
16806;BME280;8520;50.102;20.010;2023-01-19T06:09:23;96996.94;;;5.46;77.97
16806;BME280;8520;50.102;20.010;2023-01-19T06:11:51;97004.28;;;5.39;78.32
16806;BME280;8520;50.102;20.010;2023-01-19T06:14:22;97011.22;;;5.26;78.60
16806;BME280;8520;50.102;20.010;2023-01-19T06:16:50;97003.00;;;5.11;79.16
16806;BME280;8520;50.102;20.010;2023-01-19T06:19:19;97001.69;;;5.06;79.28
16806;BME280;8520;50.102;20.010;2023-01-19T06:21:48;96996.84;;;5.01;79.43
16806;BME280;8520;50.102;20.010;2023-01-19T06:24:18;96996.16;;;4.92;79.66
16806;BME280;8520;50.102;20.010;2023-01-19T06:26:50;96995.97;;;4.80;80.36
16806;BME280;8520;50.102;20.010;2023-01-19T06:29:18;96997.94;;;4.80;80.54
16806;BME280;8520;50.102;20.010;2023-01-19T06:31:46;97016.22;;;4.65;80.90
16806;BME280;8520;50.102;20.010;2023-01-19T06:34:15;97031.19;;;4.69;81.35
16806;BME280;8520;50.102;20.010;2023-01-19T06:36:44;97042.06;;;4.78;81.10
16806;BME280;8520;50.102;20.010;2023-01-19T06:39:14;97050.59;;;4.71;81.26
16806;BME280;8520;50.102;20.010;2023-01-19T06:41:42;97053.19;;;4.66;81.38
16806;BME280;8520;50.102;20.010;2023-01-19T06:44:10;97069.91;;;4.59;81.89
16806;BME280;8520;50.102;20.010;2023-01-19T06:46:38;97069.41;;;4.69;81.79
16806;BME280;8520;50.102;20.010;2023-01-19T06:49:08;97065.75;;;4.72;81.76
16806;BME280;8520;50.102;20.010;2023-01-19T06:51:41;97062.72;;;4.70;81.83
16806;BME280;8520;50.102;20.010;2023-01-19T06:54:09;97066.06;;;4.65;81.94
16806;BME280;8520;50.102;20.010;2023-01-19T06:56:38;97063.00;;;4.72;81.83
16806;BME280;8520;50.102;20.010;2023-01-19T06:59:07;97073.34;;;4.68;81.97
16806;BME280;8520;50.102;20.010;2023-01-19T07:01:35;97073.41;;;4.59;82.37
16806;BME280;8520;50.102;20.010;2023-01-19T07:04:04;97079.72;;;4.65;83.56
16806;BME280;8520;50.102;20.010;2023-01-19T07:06:32;97075.22;;;4.86;82.84
16806;BME280;8520;50.102;20.010;2023-01-19T07:09:00;97074.06;;;4.78;82.67
16806;BME280;8520;50.102;20.010;2023-01-19T07:11:33;97081.91;;;4.85;82.71
16806;BME280;8520;50.102;20.010;2023-01-19T07:14:03;97079.47;;;4.87;82.30
16806;BME280;8520;50.102;20.010;2023-01-19T07:16:32;97075.09;;;4.80;82.11
16806;BME280;8520;50.102;20.010;2023-01-19T07:19:00;97092.09;;;4.75;82.54
16806;BME280;8520;50.102;20.010;2023-01-19T07:21:28;97097.97;;;4.83;82.62
16806;BME280;8520;50.102;20.010;2023-01-19T07:23:56;97086.63;;;4.75;82.88
16806;BME280;8520;50.102;20.010;2023-01-19T07:26:25;97093.16;;;4.78;83.01
16806;BME280;8520;50.102;20.010;2023-01-19T07:28:53;97089.31;;;4.84;82.89
16806;BME280;8520;50.102;20.010;2023-01-19T07:31:23;97066.28;;;4.85;82.81
16806;BME280;8520;50.102;20.010;2023-01-19T07:33:51;97077.31;;;4.91;82.68
16806;BME280;8520;50.102;20.010;2023-01-19T07:36:19;97089.78;;;4.83;82.39
16806;BME280;8520;50.102;20.010;2023-01-19T07:38:47;97070.53;;;4.87;82.44
16806;BME280;8520;50.102;20.010;2023-01-19T07:41:15;97074.47;;;4.85;82.61
16806;BME280;8520;50.102;20.010;2023-01-19T07:43:43;97065.53;;;4.85;82.86
16806;BME280;8520;50.102;20.010;2023-01-19T07:46:16;97074.84;;;4.93;83.01
16806;BME280;8520;50.102;20.010;2023-01-19T07:48:46;97066.63;;;4.78;83.02
16806;BME280;8520;50.102;20.010;2023-01-19T07:51:15;97067.66;;;4.81;83.34
16806;BME280;8520;50.102;20.010;2023-01-19T07:53:45;97061.25;;;4.84;83.34
16806;BME280;8520;50.102;20.010;2023-01-19T07:56:13;97039.63;;;4.80;83.37
16806;BME280;8520;50.102;20.010;2023-01-19T07:58:42;97055.38;;;4.85;83.41
16806;BME280;8520;50.102;20.010;2023-01-19T08:01:11;97054.81;;;4.72;83.19
16806;BME280;8520;50.102;20.010;2023-01-19T08:03:40;97048.91;;;4.74;83.58
16806;BME280;8520;50.102;20.010;2023-01-19T08:06:18;97070.03;;;4.64;83.41
16806;BME280;8520;50.102;20.010;2023-01-19T08:08:47;97066.06;;;4.65;83.56
16806;BME280;8520;50.102;20.010;2023-01-19T08:11:15;97072.13;;;4.69;83.53
16806;BME280;8520;50.102;20.010;2023-01-19T08:13:43;97088.66;;;4.66;83.39
16806;BME280;8520;50.102;20.010;2023-01-19T08:16:12;97101.09;;;4.67;83.30
16806;BME280;8520;50.102;20.010;2023-01-19T08:18:40;97105.28;;;4.77;83.71
16806;BME280;8520;50.102;20.010;2023-01-19T08:21:08;97108.06;;;4.68;83.83
16806;BME280;8520;50.102;20.010;2023-01-19T08:23:38;97119.31;;;4.61;83.67
16806;BME280;8520;50.102;20.010;2023-01-19T08:26:25;97123.94;;;4.78;83.88
16806;BME280;8520;50.102;20.010;2023-01-19T08:28:55;97109.41;;;4.72;83.49
16806;BME280;8520;50.102;20.010;2023-01-19T08:31:24;97104.22;;;4.74;83.33
16806;BME280;8520;50.102;20.010;2023-01-19T08:33:53;97107.09;;;4.80;83.13
16806;BME280;8520;50.102;20.010;2023-01-19T08:36:21;97112.44;;;4.65;83.47
16806;BME280;8520;50.102;20.010;2023-01-19T08:38:52;97111.66;;;4.74;83.85
16806;BME280;8520;50.102;20.010;2023-01-19T08:41:20;97098.66;;;4.69;83.64
16806;BME280;8520;50.102;20.010;2023-01-19T08:43:49;97108.22;;;4.64;84.19
16806;BME280;8520;50.102;20.010;2023-01-19T08:46:17;97102.28;;;4.33;84.84
16806;BME280;8520;50.102;20.010;2023-01-19T08:48:47;97099.06;;;4.43;84.93
16806;BME280;8520;50.102;20.010;2023-01-19T08:51:16;97105.06;;;4.56;84.47
16806;BME280;8520;50.102;20.010;2023-01-19T08:53:45;97104.91;;;4.60;84.87
16806;BME280;8520;50.102;20.010;2023-01-19T08:56:15;97095.00;;;4.72;85.14
16806;BME280;8520;50.102;20.010;2023-01-19T08:58:46;97098.16;;;4.79;84.17
16806;BME280;8520;50.102;20.010;2023-01-19T09:01:33;97111.09;;;4.94;84.21
16806;BME280;8520;50.102;20.010;2023-01-19T09:04:03;97087.75;;;4.93;83.53
16806;BME280;8520;50.102;20.010;2023-01-19T09:06:31;97076.22;;;4.65;83.93
16806;BME280;8520;50.102;20.010;2023-01-19T09:08:59;97078.34;;;4.70;84.49
16806;BME280;8520;50.102;20.010;2023-01-19T09:11:29;97068.75;;;4.74;84.20
16806;BME280;8520;50.102;20.010;2023-01-19T09:13:57;97073.94;;;4.39;85.00
16806;BME280;8520;50.102;20.010;2023-01-19T09:16:25;97067.44;;;4.27;85.12
16806;BME280;8520;50.102;20.010;2023-01-19T09:18:54;97085.81;;;4.60;84.78
16806;BME280;8520;50.102;20.010;2023-01-19T09:21:23;97092.88;;;4.76;84.42
16806;BME280;8520;50.102;20.010;2023-01-19T09:23:51;97095.22;;;4.83;83.81
16806;BME280;8520;50.102;20.010;2023-01-19T09:26:20;97092.94;;;4.91;83.77
16806;BME280;8520;50.102;20.010;2023-01-19T09:28:50;97107.13;;;4.71;83.12
16806;BME280;8520;50.102;20.010;2023-01-19T09:31:18;97101.56;;;4.56;84.14
16806;BME280;8520;50.102;20.010;2023-01-19T09:33:47;97113.97;;;4.66;84.02
16806;BME280;8520;50.102;20.010;2023-01-19T09:36:15;97097.81;;;4.53;84.07
16806;BME280;8520;50.102;20.010;2023-01-19T09:38:43;97091.97;;;4.37;84.39
16806;BME280;8520;50.102;20.010;2023-01-19T09:41:17;97099.91;;;4.16;84.75
16806;BME280;8520;50.102;20.010;2023-01-19T09:43:52;97093.53;;;4.19;85.77
16806;BME280;8520;50.102;20.010;2023-01-19T09:46:24;97096.25;;;4.19;85.41
16806;BME280;8520;50.102;20.010;2023-01-19T09:48:55;97104.41;;;4.28;85.46
16806;BME280;8520;50.102;20.010;2023-01-19T09:51:26;97101.72;;;4.19;85.28
16806;BME280;8520;50.102;20.010;2023-01-19T09:54:04;97096.00;;;3.99;86.00
16806;BME280;8520;50.102;20.010;2023-01-19T09:56:34;97100.72;;;3.89;86.74
16806;BME280;8520;50.102;20.010;2023-01-19T09:59:16;97103.25;;;4.02;86.61
16806;BME280;8520;50.102;20.010;2023-01-19T10:01:55;97093.03;;;3.51;87.70
16806;BME280;8520;50.102;20.010;2023-01-19T10:04:31;97072.59;;;3.19;89.95
16806;BME280;8520;50.102;20.010;2023-01-19T10:07:12;97078.81;;;3.10;90.97
16806;BME280;8520;50.102;20.010;2023-01-19T10:09:52;97076.00;;;2.74;91.75
16806;BME280;8520;50.102;20.010;2023-01-19T10:12:31;97085.47;;;3.09;91.74
16806;BME280;8520;50.102;20.010;2023-01-19T10:15:14;97089.84;;;3.07;91.86
16806;BME280;8520;50.102;20.010;2023-01-19T10:17:52;97067.31;;;3.16;91.73
16806;BME280;8520;50.102;20.010;2023-01-19T10:20:27;97059.47;;;3.27;91.05
16806;BME280;8520;50.102;20.010;2023-01-19T10:22:59;97064.88;;;2.90;92.09
16806;BME280;8520;50.102;20.010;2023-01-19T10:25:29;97060.22;;;3.09;92.04
16806;BME280;8520;50.102;20.010;2023-01-19T10:27:58;97060.66;;;3.07;91.70
16806;BME280;8520;50.102;20.010;2023-01-19T10:30:29;97044.97;;;3.11;91.71
16806;BME280;8520;50.102;20.010;2023-01-19T10:32:57;97055.03;;;2.65;92.94
16806;BME280;8520;50.102;20.010;2023-01-19T10:35:25;97045.25;;;2.95;92.47
16806;BME280;8520;50.102;20.010;2023-01-19T10:37:56;97049.63;;;2.83;93.00
16806;BME280;8520;50.102;20.010;2023-01-19T10:40:32;97053.41;;;3.04;92.46
16806;BME280;8520;50.102;20.010;2023-01-19T10:43:00;97058.56;;;3.02;92.41
16806;BME280;8520;50.102;20.010;2023-01-19T10:45:31;97051.91;;;2.94;92.64
16806;BME280;8520;50.102;20.010;2023-01-19T10:48:04;97044.03;;;2.87;93.12
16806;BME280;8520;50.102;20.010;2023-01-19T10:50:35;97046.69;;;2.60;94.95
16806;BME280;8520;50.102;20.010;2023-01-19T10:53:18;97036.13;;;2.71;94.26
16806;BME280;8520;50.102;20.010;2023-01-19T10:55:47;97048.41;;;2.84;94.33
16806;BME280;8520;50.102;20.010;2023-01-19T10:58:35;97039.81;;;3.13;92.56
16806;BME280;8520;50.102;20.010;2023-01-19T11:01:14;97044.50;;;2.95;92.85
16806;BME280;8520;50.102;20.010;2023-01-19T11:03:43;97048.13;;;3.19;92.78
16806;BME280;8520;50.102;20.010;2023-01-19T11:06:23;97043.75;;;3.03;93.12
16806;BME280;8520;50.102;20.010;2023-01-19T11:08:52;97036.16;;;2.98;94.15
16806;BME280;8520;50.102;20.010;2023-01-19T11:11:22;97035.56;;;2.85;93.59
16806;BME280;8520;50.102;20.010;2023-01-19T11:14:07;97040.09;;;2.97;93.92
16806;BME280;8520;50.102;20.010;2023-01-19T11:16:38;97031.00;;;2.91;93.95
16806;BME280;8520;50.102;20.010;2023-01-19T11:19:17;97017.28;;;2.85;94.19
16806;BME280;8520;50.102;20.010;2023-01-19T11:21:48;97018.63;;;2.81;94.97
16806;BME280;8520;50.102;20.010;2023-01-19T11:24:19;97022.22;;;2.69;95.24
16806;BME280;8520;50.102;20.010;2023-01-19T11:26:49;97017.84;;;2.62;96.19
16806;BME280;8520;50.102;20.010;2023-01-19T11:29:24;97004.44;;;2.86;95.77
16806;BME280;8520;50.102;20.010;2023-01-19T11:32:08;96998.63;;;2.47;96.38
16806;BME280;8520;50.102;20.010;2023-01-19T11:34:37;96996.66;;;2.39;96.98
16806;BME280;8520;50.102;20.010;2023-01-19T11:37:24;97000.78;;;2.71;97.32
16806;BME280;8520;50.102;20.010;2023-01-19T11:39:55;97007.69;;;2.53;96.66
16806;BME280;8520;50.102;20.010;2023-01-19T11:42:24;97010.97;;;2.30;96.90
16806;BME280;8520;50.102;20.010;2023-01-19T11:44:58;96996.50;;;2.42;97.89
16806;BME280;8520;50.102;20.010;2023-01-19T11:47:33;97009.38;;;2.69;96.74
16806;BME280;8520;50.102;20.010;2023-01-19T11:50:05;97017.72;;;2.75;96.25
16806;BME280;8520;50.102;20.010;2023-01-19T11:52:38;97024.69;;;2.94;95.61
16806;BME280;8520;50.102;20.010;2023-01-19T11:55:16;97016.06;;;2.96;95.42
16806;BME280;8520;50.102;20.010;2023-01-19T11:57:47;97014.50;;;2.58;95.36
16806;BME280;8520;50.102;20.010;2023-01-19T12:00:24;97012.69;;;2.64;96.48
16806;BME280;8520;50.102;20.010;2023-01-19T12:02:57;97017.09;;;2.80;95.76
16806;BME280;8520;50.102;20.010;2023-01-19T12:05:31;97014.25;;;2.83;96.33
16806;BME280;8520;50.102;20.010;2023-01-19T12:08:04;97009.56;;;2.93;96.10
16806;BME280;8520;50.102;20.010;2023-01-19T12:10:37;96997.94;;;2.74;95.85
16806;BME280;8520;50.102;20.010;2023-01-19T12:13:17;96991.38;;;2.53;97.42
16806;BME280;8520;50.102;20.010;2023-01-19T12:15:50;96994.84;;;2.45;97.81
16806;BME280;8520;50.102;20.010;2023-01-19T12:18:23;96996.19;;;2.40;97.45
16806;BME280;8520;50.102;20.010;2023-01-19T12:20:54;97005.84;;;2.32;97.76
16806;BME280;8520;50.102;20.010;2023-01-19T12:23:30;97014.31;;;2.43;96.88
16806;BME280;8520;50.102;20.010;2023-01-19T12:26:19;97013.88;;;2.54;97.39
16806;BME280;8520;50.102;20.010;2023-01-19T12:28:58;97018.53;;;2.44;97.13
16806;BME280;8520;50.102;20.010;2023-01-19T12:31:30;97027.81;;;2.65;96.58
16806;BME280;8520;50.102;20.010;2023-01-19T12:34:27;97020.97;;;2.42;97.28
16806;BME280;8520;50.102;20.010;2023-01-19T12:37:03;97027.41;;;2.26;97.67
16806;BME280;8520;50.102;20.010;2023-01-19T12:39:48;97034.22;;;2.31;98.55
16806;BME280;8520;50.102;20.010;2023-01-19T12:42:17;97038.53;;;2.60;98.04
16806;BME280;8520;50.102;20.010;2023-01-19T12:44:47;97034.25;;;2.40;97.04
16806;BME280;8520;50.102;20.010;2023-01-19T12:47:19;97022.97;;;1.80;99.02
16806;BME280;8520;50.102;20.010;2023-01-19T12:49:54;97027.75;;;1.97;99.16
16806;BME280;8520;50.102;20.010;2023-01-19T12:52:27;97032.00;;;2.08;98.61
16806;BME280;8520;50.102;20.010;2023-01-19T12:55:06;97029.03;;;1.84;99.28
16806;BME280;8520;50.102;20.010;2023-01-19T12:57:48;97046.72;;;1.88;99.28
16806;BME280;8520;50.102;20.010;2023-01-19T13:00:29;97024.69;;;1.64;100.00
16806;BME280;8520;50.102;20.010;2023-01-19T13:02:58;97023.06;;;1.67;100.00
16806;BME280;8520;50.102;20.010;2023-01-19T13:05:58;97038.50;;;1.48;100.00
16806;BME280;8520;50.102;20.010;2023-01-19T13:08:28;97023.06;;;1.67;100.00
16806;BME280;8520;50.102;20.010;2023-01-19T13:11:18;97044.78;;;1.45;100.00
16806;BME280;8520;50.102;20.010;2023-01-19T13:17:16;97025.44;;;1.56;100.00
16806;BME280;8520;50.102;20.010;2023-01-19T13:19:56;97024.44;;;1.71;100.00
16806;BME280;8520;50.102;20.010;2023-01-19T13:25:46;97044.59;;;1.83;100.00
16806;BME280;8520;50.102;20.010;2023-01-19T13:28:17;97053.31;;;1.56;100.00
16806;BME280;8520;50.102;20.010;2023-01-19T13:30:54;97050.94;;;1.89;100.00
16806;BME280;8520;50.102;20.010;2023-01-19T13:33:26;97048.13;;;1.71;99.47
16806;BME280;8520;50.102;20.010;2023-01-19T13:35:56;97048.00;;;1.75;100.00
16806;BME280;8520;50.102;20.010;2023-01-19T13:38:26;97043.00;;;1.73;100.00
16806;BME280;8520;50.102;20.010;2023-01-19T13:40:58;97057.88;;;1.59;100.00
16806;BME280;8520;50.102;20.010;2023-01-19T13:43:31;97056.91;;;1.53;100.00
16806;BME280;8520;50.102;20.010;2023-01-19T13:46:00;97054.94;;;1.76;100.00
16806;BME280;8520;50.102;20.010;2023-01-19T13:48:30;97062.06;;;1.82;99.22